sensor_id;sensor_type;location;lat;lon;timestamp;temperature;humidity
49855;DHT22;35752;52.164;21.244;2023-03-01T00:00:15;-4.40;99.90
49855;DHT22;35752;52.164;21.244;2023-03-01T00:02:41;-4.40;99.90
49855;DHT22;35752;52.164;21.244;2023-03-01T00:05:06;-4.40;99.90
49855;DHT22;35752;52.164;21.244;2023-03-01T00:07:32;-4.40;99.90
49855;DHT22;35752;52.164;21.244;2023-03-01T00:09:58;-4.40;99.90
49855;DHT22;35752;52.164;21.244;2023-03-01T00:12:23;-4.50;99.90
49855;DHT22;35752;52.164;21.244;2023-03-01T00:14:49;-4.40;99.90
49855;DHT22;35752;52.164;21.244;2023-03-01T00:17:15;-4.40;99.90
49855;DHT22;35752;52.164;21.244;2023-03-01T00:19:40;-4.50;99.90
49855;DHT22;35752;52.164;21.244;2023-03-01T00:22:06;-4.50;99.90
49855;DHT22;35752;52.164;21.244;2023-03-01T00:24:31;-4.40;99.90
49855;DHT22;35752;52.164;21.244;2023-03-01T00:26:57;-4.30;99.90
49855;DHT22;35752;52.164;21.244;2023-03-01T00:29:23;-4.40;99.90
49855;DHT22;35752;52.164;21.244;2023-03-01T00:31:49;-4.30;99.90
49855;DHT22;35752;52.164;21.244;2023-03-01T00:34:14;-4.40;99.90
49855;DHT22;35752;52.164;21.244;2023-03-01T00:36:40;-4.30;99.90
49855;DHT22;35752;52.164;21.244;2023-03-01T00:39:07;-4.40;99.90
49855;DHT22;35752;52.164;21.244;2023-03-01T00:41:33;-4.30;99.90
49855;DHT22;35752;52.164;21.244;2023-03-01T00:43:59;-4.30;99.90
49855;DHT22;35752;52.164;21.244;2023-03-01T00:46:26;-4.30;99.90
49855;DHT22;35752;52.164;21.244;2023-03-01T00:48:52;-4.30;99.90
49855;DHT22;35752;52.164;21.244;2023-03-01T00:51:24;-4.30;99.90
49855;DHT22;35752;52.164;21.244;2023-03-01T00:53:51;-4.30;99.90
49855;DHT22;35752;52.164;21.244;2023-03-01T00:56:16;-4.30;99.90
49855;DHT22;35752;52.164;21.244;2023-03-01T00:58:42;-4.20;99.90
49855;DHT22;35752;52.164;21.244;2023-03-01T01:01:09;-4.30;99.90
49855;DHT22;35752;52.164;21.244;2023-03-01T01:06:18;-4.40;99.90
49855;DHT22;35752;52.164;21.244;2023-03-01T01:08:44;-4.40;99.90
49855;DHT22;35752;52.164;21.244;2023-03-01T01:11:10;-4.40;99.90
49855;DHT22;35752;52.164;21.244;2023-03-01T01:13:36;-4.40;99.90
49855;DHT22;35752;52.164;21.244;2023-03-01T01:16:01;-4.30;99.90
49855;DHT22;35752;52.164;21.244;2023-03-01T01:18:27;-4.30;99.90
49855;DHT22;35752;52.164;21.244;2023-03-01T01:20:52;-4.30;99.90
49855;DHT22;35752;52.164;21.244;2023-03-01T01:23:18;-4.30;99.90
49855;DHT22;35752;52.164;21.244;2023-03-01T01:25:43;-4.40;99.90
49855;DHT22;35752;52.164;21.244;2023-03-01T01:28:09;-4.30;99.90
49855;DHT22;35752;52.164;21.244;2023-03-01T01:30:34;-4.30;99.90
49855;DHT22;35752;52.164;21.244;2023-03-01T01:33:00;-4.20;99.90
49855;DHT22;35752;52.164;21.244;2023-03-01T01:35:25;-4.20;99.90
49855;DHT22;35752;52.164;21.244;2023-03-01T01:37:52;-4.30;99.90
49855;DHT22;35752;52.164;21.244;2023-03-01T01:40:18;-4.20;99.90
49855;DHT22;35752;52.164;21.244;2023-03-01T01:42:43;-4.20;99.90
49855;DHT22;35752;52.164;21.244;2023-03-01T01:45:42;-4.20;99.90
49855;DHT22;35752;52.164;21.244;2023-03-01T01:48:04;-4.20;99.90
49855;DHT22;35752;52.164;21.244;2023-03-01T01:50:32;-4.30;99.90
49855;DHT22;35752;52.164;21.244;2023-03-01T01:53:04;-4.30;99.90
49855;DHT22;35752;52.164;21.244;2023-03-01T01:55:30;-4.40;99.90
49855;DHT22;35752;52.164;21.244;2023-03-01T01:57:57;-4.40;99.90
49855;DHT22;35752;52.164;21.244;2023-03-01T02:00:26;-4.40;99.90
49855;DHT22;35752;52.164;21.244;2023-03-01T02:02:55;-4.40;99.90
49855;DHT22;35752;52.164;21.244;2023-03-01T02:07:47;-4.40;99.90
49855;DHT22;35752;52.164;21.244;2023-03-01T02:10:13;-4.30;99.90
49855;DHT22;35752;52.164;21.244;2023-03-01T02:12:38;-4.30;99.90
49855;DHT22;35752;52.164;21.244;2023-03-01T02:15:05;-4.50;99.90
49855;DHT22;35752;52.164;21.244;2023-03-01T02:17:30;-4.60;99.90
49855;DHT22;35752;52.164;21.244;2023-03-01T02:20:03;-4.50;99.90
49855;DHT22;35752;52.164;21.244;2023-03-01T02:22:32;-4.60;99.90
49855;DHT22;35752;52.164;21.244;2023-03-01T02:27:33;-4.70;99.90
49855;DHT22;35752;52.164;21.244;2023-03-01T02:30:02;-4.70;99.90
49855;DHT22;35752;52.164;21.244;2023-03-01T02:32:27;-4.70;99.90
49855;DHT22;35752;52.164;21.244;2023-03-01T02:34:54;-4.60;99.90
49855;DHT22;35752;52.164;21.244;2023-03-01T02:37:20;-4.60;99.90
49855;DHT22;35752;52.164;21.244;2023-03-01T02:39:59;-4.70;99.90
49855;DHT22;35752;52.164;21.244;2023-03-01T02:42:31;-4.70;99.90
49855;DHT22;35752;52.164;21.244;2023-03-01T02:44:59;-4.70;99.90
49855;DHT22;35752;52.164;21.244;2023-03-01T02:47:24;-4.60;99.90
49855;DHT22;35752;52.164;21.244;2023-03-01T02:49:50;-4.70;99.90
49855;DHT22;35752;52.164;21.244;2023-03-01T02:55:10;-4.60;99.90
49855;DHT22;35752;52.164;21.244;2023-03-01T02:57:38;-4.60;99.90
49855;DHT22;35752;52.164;21.244;2023-03-01T03:00:06;-4.50;99.90
49855;DHT22;35752;52.164;21.244;2023-03-01T03:02:33;-4.50;99.90
49855;DHT22;35752;52.164;21.244;2023-03-01T03:05:12;-4.40;99.90
49855;DHT22;35752;52.164;21.244;2023-03-01T03:07:38;-4.60;99.90
49855;DHT22;35752;52.164;21.244;2023-03-01T03:10:05;-4.50;99.90
49855;DHT22;35752;52.164;21.244;2023-03-01T03:12:31;-4.60;99.90
49855;DHT22;35752;52.164;21.244;2023-03-01T03:14:57;-4.40;99.90
49855;DHT22;35752;52.164;21.244;2023-03-01T03:17:23;-4.40;99.90
49855;DHT22;35752;52.164;21.244;2023-03-01T03:19:48;-4.50;99.90
49855;DHT22;35752;52.164;21.244;2023-03-01T03:22:14;-4.50;99.90
49855;DHT22;35752;52.164;21.244;2023-03-01T03:24:39;-4.50;99.90
49855;DHT22;35752;52.164;21.244;2023-03-01T03:27:05;-4.50;99.90
49855;DHT22;35752;52.164;21.244;2023-03-01T03:29:31;-4.50;99.90
49855;DHT22;35752;52.164;21.244;2023-03-01T03:31:56;-4.40;99.90
49855;DHT22;35752;52.164;21.244;2023-03-01T03:34:22;-4.50;99.90
49855;DHT22;35752;52.164;21.244;2023-03-01T03:36:52;-4.40;99.90
49855;DHT22;35752;52.164;21.244;2023-03-01T03:39:22;-4.40;99.90
49855;DHT22;35752;52.164;21.244;2023-03-01T03:41:48;-4.40;99.90
49855;DHT22;35752;52.164;21.244;2023-03-01T03:44:14;-4.40;99.90
49855;DHT22;35752;52.164;21.244;2023-03-01T03:46:39;-4.40;99.90
49855;DHT22;35752;52.164;21.244;2023-03-01T03:49:05;-4.30;99.90
49855;DHT22;35752;52.164;21.244;2023-03-01T03:51:30;-4.20;99.90
49855;DHT22;35752;52.164;21.244;2023-03-01T03:53:56;-4.30;99.90
49855;DHT22;35752;52.164;21.244;2023-03-01T03:56:21;-4.30;99.90
49855;DHT22;35752;52.164;21.244;2023-03-01T03:58:51;-4.30;99.90
49855;DHT22;35752;52.164;21.244;2023-03-01T04:01:17;-4.30;99.90
49855;DHT22;35752;52.164;21.244;2023-03-01T04:03:42;-4.40;99.90
49855;DHT22;35752;52.164;21.244;2023-03-01T04:06:12;-4.30;99.90
49855;DHT22;35752;52.164;21.244;2023-03-01T04:08:37;-4.30;99.90
49855;DHT22;35752;52.164;21.244;2023-03-01T04:11:04;-4.30;99.90
49855;DHT22;35752;52.164;21.244;2023-03-01T04:13:50;-4.30;99.90
49855;DHT22;35752;52.164;21.244;2023-03-01T04:16:16;-4.30;99.90
49855;DHT22;35752;52.164;21.244;2023-03-01T04:18:41;-4.30;99.90
49855;DHT22;35752;52.164;21.244;2023-03-01T04:21:07;-4.30;99.90
49855;DHT22;35752;52.164;21.244;2023-03-01T04:23:33;-4.20;99.90
49855;DHT22;35752;52.164;21.244;2023-03-01T04:25:58;-4.10;99.90
49855;DHT22;35752;52.164;21.244;2023-03-01T04:28:25;-4.10;99.90
49855;DHT22;35752;52.164;21.244;2023-03-01T04:30:52;-4.00;99.90
49855;DHT22;35752;52.164;21.244;2023-03-01T04:33:17;-4.10;99.90
49855;DHT22;35752;52.164;21.244;2023-03-01T04:35:43;-4.10;99.90
49855;DHT22;35752;52.164;21.244;2023-03-01T04:38:09;-4.20;99.90
49855;DHT22;35752;52.164;21.244;2023-03-01T04:40:34;-4.10;99.90
49855;DHT22;35752;52.164;21.244;2023-03-01T04:43:00;-4.10;99.90
49855;DHT22;35752;52.164;21.244;2023-03-01T04:45:26;-4.10;99.90
49855;DHT22;35752;52.164;21.244;2023-03-01T04:47:53;-4.20;99.90
49855;DHT22;35752;52.164;21.244;2023-03-01T04:50:18;-4.20;99.90
49855;DHT22;35752;52.164;21.244;2023-03-01T04:52:48;-4.20;99.90
49855;DHT22;35752;52.164;21.244;2023-03-01T04:55:14;-4.20;99.90
49855;DHT22;35752;52.164;21.244;2023-03-01T04:57:40;-4.20;99.90
49855;DHT22;35752;52.164;21.244;2023-03-01T05:00:07;-4.20;99.90
49855;DHT22;35752;52.164;21.244;2023-03-01T05:03:03;-4.20;99.90
49855;DHT22;35752;52.164;21.244;2023-03-01T05:05:35;-4.10;99.90
49855;DHT22;35752;52.164;21.244;2023-03-01T05:08:07;-4.20;99.90
49855;DHT22;35752;52.164;21.244;2023-03-01T05:10:34;-4.10;99.90
49855;DHT22;35752;52.164;21.244;2023-03-01T05:13:00;-4.20;99.90
49855;DHT22;35752;52.164;21.244;2023-03-01T05:15:26;-4.10;99.90
49855;DHT22;35752;52.164;21.244;2023-03-01T05:17:54;-4.00;99.90
49855;DHT22;35752;52.164;21.244;2023-03-01T05:20:20;-4.10;99.90
49855;DHT22;35752;52.164;21.244;2023-03-01T05:22:49;-4.00;99.90
49855;DHT22;35752;52.164;21.244;2023-03-01T05:25:15;-4.00;99.90
49855;DHT22;35752;52.164;21.244;2023-03-01T05:27:41;-4.00;99.90
49855;DHT22;35752;52.164;21.244;2023-03-01T05:30:07;-4.00;99.90
49855;DHT22;35752;52.164;21.244;2023-03-01T05:32:48;-4.00;99.90
49855;DHT22;35752;52.164;21.244;2023-03-01T05:35:15;-3.90;99.90
49855;DHT22;35752;52.164;21.244;2023-03-01T05:37:42;-3.90;99.90
49855;DHT22;35752;52.164;21.244;2023-03-01T05:40:09;-3.80;99.90
49855;DHT22;35752;52.164;21.244;2023-03-01T05:42:44;-3.90;99.90
49855;DHT22;35752;52.164;21.244;2023-03-01T05:45:10;-3.80;99.90
49855;DHT22;35752;52.164;21.244;2023-03-01T05:47:36;-3.80;99.90
49855;DHT22;35752;52.164;21.244;2023-03-01T05:50:01;-3.80;99.90
49855;DHT22;35752;52.164;21.244;2023-03-01T05:52:27;-3.70;99.90
49855;DHT22;35752;52.164;21.244;2023-03-01T05:54:52;-3.70;99.90
49855;DHT22;35752;52.164;21.244;2023-03-01T05:57:18;-3.60;99.90
49855;DHT22;35752;52.164;21.244;2023-03-01T05:59:45;-3.50;99.90
49855;DHT22;35752;52.164;21.244;2023-03-01T06:02:10;-3.50;99.90
49855;DHT22;35752;52.164;21.244;2023-03-01T06:04:36;-3.40;99.90
49855;DHT22;35752;52.164;21.244;2023-03-01T06:07:01;-3.30;99.90
49855;DHT22;35752;52.164;21.244;2023-03-01T06:09:27;-3.20;99.90
49855;DHT22;35752;52.164;21.244;2023-03-01T06:11:52;-3.20;99.90
49855;DHT22;35752;52.164;21.244;2023-03-01T06:14:18;-3.10;99.90
49855;DHT22;35752;52.164;21.244;2023-03-01T06:16:43;-3.10;99.90
49855;DHT22;35752;52.164;21.244;2023-03-01T06:19:09;-3.00;99.90
49855;DHT22;35752;52.164;21.244;2023-03-01T06:21:34;-3.00;99.90
49855;DHT22;35752;52.164;21.244;2023-03-01T06:24:00;-2.90;99.90
49855;DHT22;35752;52.164;21.244;2023-03-01T06:26:25;-2.80;99.90
49855;DHT22;35752;52.164;21.244;2023-03-01T06:28:51;-2.60;99.90
49855;DHT22;35752;52.164;21.244;2023-03-01T06:31:16;-2.40;99.90
49855;DHT22;35752;52.164;21.244;2023-03-01T06:33:43;-2.40;99.90
49855;DHT22;35752;52.164;21.244;2023-03-01T06:36:09;-2.30;99.90
49855;DHT22;35752;52.164;21.244;2023-03-01T06:38:35;-2.20;99.90
49855;DHT22;35752;52.164;21.244;2023-03-01T06:41:00;-2.20;99.90
49855;DHT22;35752;52.164;21.244;2023-03-01T06:43:27;-2.00;99.90
49855;DHT22;35752;52.164;21.244;2023-03-01T06:45:52;-1.90;99.90
49855;DHT22;35752;52.164;21.244;2023-03-01T06:48:18;-1.80;99.90
49855;DHT22;35752;52.164;21.244;2023-03-01T06:50:43;-1.70;99.90
49855;DHT22;35752;52.164;21.244;2023-03-01T06:53:09;-1.60;99.90
49855;DHT22;35752;52.164;21.244;2023-03-01T06:55:34;-1.60;99.90
49855;DHT22;35752;52.164;21.244;2023-03-01T06:58:01;-1.50;99.90
49855;DHT22;35752;52.164;21.244;2023-03-01T07:00:27;-1.40;99.90
49855;DHT22;35752;52.164;21.244;2023-03-01T07:02:53;-1.30;99.90
49855;DHT22;35752;52.164;21.244;2023-03-01T07:05:18;-1.10;99.90
49855;DHT22;35752;52.164;21.244;2023-03-01T07:07:44;-1.00;99.90
49855;DHT22;35752;52.164;21.244;2023-03-01T07:10:10;-0.90;99.90
49855;DHT22;35752;52.164;21.244;2023-03-01T07:12:36;-0.90;99.90
49855;DHT22;35752;52.164;21.244;2023-03-01T07:15:01;-0.80;99.90
49855;DHT22;35752;52.164;21.244;2023-03-01T07:17:27;-0.70;99.90
49855;DHT22;35752;52.164;21.244;2023-03-01T07:19:52;-0.60;99.90
49855;DHT22;35752;52.164;21.244;2023-03-01T07:22:18;-0.50;99.90
49855;DHT22;35752;52.164;21.244;2023-03-01T07:24:43;-0.50;99.90
49855;DHT22;35752;52.164;21.244;2023-03-01T07:27:09;-0.40;99.90
49855;DHT22;35752;52.164;21.244;2023-03-01T07:29:35;-0.30;99.90
49855;DHT22;35752;52.164;21.244;2023-03-01T07:32:02;-0.20;99.90
49855;DHT22;35752;52.164;21.244;2023-03-01T07:34:27;-0.10;99.90
49855;DHT22;35752;52.164;21.244;2023-03-01T07:36:53;0.00;99.90
49855;DHT22;35752;52.164;21.244;2023-03-01T07:39:18;0.10;99.90
49855;DHT22;35752;52.164;21.244;2023-03-01T07:41:44;0.20;99.90
49855;DHT22;35752;52.164;21.244;2023-03-01T07:44:10;0.30;99.90
49855;DHT22;35752;52.164;21.244;2023-03-01T07:46:36;0.40;99.90
49855;DHT22;35752;52.164;21.244;2023-03-01T07:49:01;0.50;99.90
49855;DHT22;35752;52.164;21.244;2023-03-01T07:51:27;0.60;99.90
49855;DHT22;35752;52.164;21.244;2023-03-01T07:53:52;0.70;99.90
49855;DHT22;35752;52.164;21.244;2023-03-01T07:56:18;0.80;99.90
49855;DHT22;35752;52.164;21.244;2023-03-01T07:58:44;0.90;99.90
49855;DHT22;35752;52.164;21.244;2023-03-01T08:01:11;1.10;99.90
49855;DHT22;35752;52.164;21.244;2023-03-01T08:03:37;1.20;99.90
49855;DHT22;35752;52.164;21.244;2023-03-01T08:06:04;1.30;99.90
49855;DHT22;35752;52.164;21.244;2023-03-01T08:08:30;1.50;99.90
49855;DHT22;35752;52.164;21.244;2023-03-01T08:10:56;1.60;99.90
49855;DHT22;35752;52.164;21.244;2023-03-01T08:13:21;1.70;99.90
49855;DHT22;35752;52.164;21.244;2023-03-01T08:15:48;1.80;99.90
49855;DHT22;35752;52.164;21.244;2023-03-01T08:18:14;1.90;99.90
49855;DHT22;35752;52.164;21.244;2023-03-01T08:20:39;2.00;99.90
49855;DHT22;35752;52.164;21.244;2023-03-01T08:23:05;2.00;99.90
49855;DHT22;35752;52.164;21.244;2023-03-01T08:25:30;2.10;99.90
49855;DHT22;35752;52.164;21.244;2023-03-01T08:27:56;2.30;99.90
49855;DHT22;35752;52.164;21.244;2023-03-01T08:30:22;2.30;99.90
49855;DHT22;35752;52.164;21.244;2023-03-01T08:32:49;2.40;99.90
49855;DHT22;35752;52.164;21.244;2023-03-01T08:35:15;2.50;99.90
49855;DHT22;35752;52.164;21.244;2023-03-01T08:37:40;2.60;99.90
49855;DHT22;35752;52.164;21.244;2023-03-01T08:40:06;2.70;99.90
49855;DHT22;35752;52.164;21.244;2023-03-01T08:42:32;2.80;99.90
49855;DHT22;35752;52.164;21.244;2023-03-01T08:44:58;2.90;99.90
49855;DHT22;35752;52.164;21.244;2023-03-01T08:47:23;3.10;99.90
49855;DHT22;35752;52.164;21.244;2023-03-01T08:49:49;3.20;99.90
49855;DHT22;35752;52.164;21.244;2023-03-01T08:52:15;3.30;99.90
49855;DHT22;35752;52.164;21.244;2023-03-01T08:54:40;3.40;99.90
49855;DHT22;35752;52.164;21.244;2023-03-01T08:57:06;3.50;99.90
49855;DHT22;35752;52.164;21.244;2023-03-01T08:59:31;3.50;99.90
49855;DHT22;35752;52.164;21.244;2023-03-01T09:02:03;3.60;99.90
49855;DHT22;35752;52.164;21.244;2023-03-01T09:04:28;3.70;99.90
49855;DHT22;35752;52.164;21.244;2023-03-01T09:06:54;3.80;99.90
49855;DHT22;35752;52.164;21.244;2023-03-01T09:09:20;3.80;99.90
49855;DHT22;35752;52.164;21.244;2023-03-01T09:11:45;3.90;99.90
49855;DHT22;35752;52.164;21.244;2023-03-01T09:14:12;3.90;99.90
49855;DHT22;35752;52.164;21.244;2023-03-01T09:16:37;3.90;99.90
49855;DHT22;35752;52.164;21.244;2023-03-01T09:19:03;4.10;99.90
49855;DHT22;35752;52.164;21.244;2023-03-01T09:21:28;4.10;99.90
49855;DHT22;35752;52.164;21.244;2023-03-01T09:23:55;4.20;99.90
49855;DHT22;35752;52.164;21.244;2023-03-01T09:26:21;4.20;99.90
49855;DHT22;35752;52.164;21.244;2023-03-01T09:28:48;4.20;99.90
49855;DHT22;35752;52.164;21.244;2023-03-01T09:31:14;4.20;99.90
49855;DHT22;35752;52.164;21.244;2023-03-01T09:33:40;4.20;99.90
49855;DHT22;35752;52.164;21.244;2023-03-01T09:36:07;4.10;99.90
49855;DHT22;35752;52.164;21.244;2023-03-01T09:38:33;4.00;99.90
49855;DHT22;35752;52.164;21.244;2023-03-01T09:40:59;4.00;99.90
49855;DHT22;35752;52.164;21.244;2023-03-01T09:43:26;4.10;99.90
49855;DHT22;35752;52.164;21.244;2023-03-01T09:45:55;4.10;99.90
49855;DHT22;35752;52.164;21.244;2023-03-01T09:48:24;4.10;99.90
49855;DHT22;35752;52.164;21.244;2023-03-01T09:50:51;4.10;99.90
49855;DHT22;35752;52.164;21.244;2023-03-01T09:53:22;4.20;99.90
49855;DHT22;35752;52.164;21.244;2023-03-01T10:06:31;4.40;99.90
49855;DHT22;35752;52.164;21.244;2023-03-01T10:11:30;4.60;99.90
49855;DHT22;35752;52.164;21.244;2023-03-01T10:14:04;4.70;99.90
49855;DHT22;35752;52.164;21.244;2023-03-01T10:19:17;4.70;99.90
49855;DHT22;35752;52.164;21.244;2023-03-01T10:21:46;4.80;99.90
49855;DHT22;35752;52.164;21.244;2023-03-01T10:24:12;4.90;99.90
49855;DHT22;35752;52.164;21.244;2023-03-01T10:29:14;5.00;99.90
49855;DHT22;35752;52.164;21.244;2023-03-01T10:31:50;5.00;99.90
49855;DHT22;35752;52.164;21.244;2023-03-01T10:34:17;5.00;99.90
49855;DHT22;35752;52.164;21.244;2023-03-01T10:36:44;4.90;99.90
49855;DHT22;35752;52.164;21.244;2023-03-01T10:39:14;5.00;99.90
49855;DHT22;35752;52.164;21.244;2023-03-01T10:41:44;5.10;99.90
49855;DHT22;35752;52.164;21.244;2023-03-01T10:44:34;5.20;99.90
49855;DHT22;35752;52.164;21.244;2023-03-01T10:47:00;5.20;99.90
49855;DHT22;35752;52.164;21.244;2023-03-01T10:49:26;5.20;99.90
49855;DHT22;35752;52.164;21.244;2023-03-01T10:51:52;5.20;99.90
49855;DHT22;35752;52.164;21.244;2023-03-01T10:54:20;5.30;99.90
49855;DHT22;35752;52.164;21.244;2023-03-01T10:56:47;5.30;99.90
49855;DHT22;35752;52.164;21.244;2023-03-01T10:59:25;5.40;99.90
49855;DHT22;35752;52.164;21.244;2023-03-01T11:02:15;5.60;99.90
49855;DHT22;35752;52.164;21.244;2023-03-01T11:05:00;5.60;99.90
49855;DHT22;35752;52.164;21.244;2023-03-01T11:07:26;5.60;99.90
49855;DHT22;35752;52.164;21.244;2023-03-01T11:09:52;5.70;99.90
49855;DHT22;35752;52.164;21.244;2023-03-01T11:12:18;5.70;99.90
49855;DHT22;35752;52.164;21.244;2023-03-01T11:14:53;5.70;99.90
49855;DHT22;35752;52.164;21.244;2023-03-01T11:22:53;5.80;99.90
49855;DHT22;35752;52.164;21.244;2023-03-01T11:25:19;5.90;99.90
49855;DHT22;35752;52.164;21.244;2023-03-01T11:27:45;5.90;99.90
49855;DHT22;35752;52.164;21.244;2023-03-01T11:30:19;5.90;99.90
49855;DHT22;35752;52.164;21.244;2023-03-01T11:32:47;6.00;99.90
49855;DHT22;35752;52.164;21.244;2023-03-01T11:35:21;6.00;99.90
49855;DHT22;35752;52.164;21.244;2023-03-01T11:40:26;6.00;99.90
49855;DHT22;35752;52.164;21.244;2023-03-01T11:45:22;6.10;99.90
49855;DHT22;35752;52.164;21.244;2023-03-01T11:50:21;6.10;99.90
49855;DHT22;35752;52.164;21.244;2023-03-01T12:10:44;6.30;99.90
49855;DHT22;35752;52.164;21.244;2023-03-01T12:13:22;6.40;99.90
49855;DHT22;35752;52.164;21.244;2023-03-01T12:23:35;6.60;99.90
49855;DHT22;35752;52.164;21.244;2023-03-01T12:49:37;6.70;99.90
49855;DHT22;35752;52.164;21.244;2023-03-01T12:52:14;6.70;99.90
49855;DHT22;35752;52.164;21.244;2023-03-01T12:54:41;6.70;99.90
49855;DHT22;35752;52.164;21.244;2023-03-01T13:03:05;6.90;99.90
49855;DHT22;35752;52.164;21.244;2023-03-01T13:05:53;6.90;99.90
49855;DHT22;35752;52.164;21.244;2023-03-01T13:08:29;6.90;99.90
49855;DHT22;35752;52.164;21.244;2023-03-01T13:10:56;6.90;99.90
49855;DHT22;35752;52.164;21.244;2023-03-01T13:13:24;6.90;99.90
49855;DHT22;35752;52.164;21.244;2023-03-01T13:15:50;6.90;99.90
49855;DHT22;35752;52.164;21.244;2023-03-01T13:26:01;7.00;99.90
49855;DHT22;35752;52.164;21.244;2023-03-01T13:31:05;7.10;99.90
49855;DHT22;35752;52.164;21.244;2023-03-01T13:35:57;7.20;99.90
49855;DHT22;35752;52.164;21.244;2023-03-01T13:41:03;7.30;99.90
49855;DHT22;35752;52.164;21.244;2023-03-01T13:43:34;7.30;99.90
49855;DHT22;35752;52.164;21.244;2023-03-01T13:46:00;7.40;99.90
49855;DHT22;35752;52.164;21.244;2023-03-01T13:48:28;7.40;99.90
49855;DHT22;35752;52.164;21.244;2023-03-01T13:50:55;7.50;99.90
49855;DHT22;35752;52.164;21.244;2023-03-01T13:53:23;7.50;99.90
49855;DHT22;35752;52.164;21.244;2023-03-01T13:55:57;7.50;99.90
49855;DHT22;35752;52.164;21.244;2023-03-01T14:03:21;7.30;99.90
49855;DHT22;35752;52.164;21.244;2023-03-01T14:08:45;7.20;99.90
49855;DHT22;35752;52.164;21.244;2023-03-01T14:13:58;7.10;99.90
49855;DHT22;35752;52.164;21.244;2023-03-01T14:21:36;7.10;99.90
49855;DHT22;35752;52.164;21.244;2023-03-01T14:24:01;7.20;99.90
49855;DHT22;35752;52.164;21.244;2023-03-01T14:26:27;7.30;99.90
49855;DHT22;35752;52.164;21.244;2023-03-01T14:28:53;7.40;99.90
49855;DHT22;35752;52.164;21.244;2023-03-01T14:33:56;7.40;99.90
49855;DHT22;35752;52.164;21.244;2023-03-01T14:36:25;7.50;99.90
49855;DHT22;35752;52.164;21.244;2023-03-01T14:38:51;7.50;99.90
49855;DHT22;35752;52.164;21.244;2023-03-01T14:41:19;7.40;99.90
49855;DHT22;35752;52.164;21.244;2023-03-01T14:43:46;7.30;99.90
49855;DHT22;35752;52.164;21.244;2023-03-01T14:46:19;7.40;99.90
49855;DHT22;35752;52.164;21.244;2023-03-01T14:48:47;7.30;99.90
49855;DHT22;35752;52.164;21.244;2023-03-01T14:51:13;7.30;99.90
49855;DHT22;35752;52.164;21.244;2023-03-01T14:53:39;7.30;99.90
49855;DHT22;35752;52.164;21.244;2023-03-01T14:56:05;7.20;99.90
49855;DHT22;35752;52.164;21.244;2023-03-01T14:58:32;7.20;99.90
49855;DHT22;35752;52.164;21.244;2023-03-01T15:01:02;7.20;99.90
49855;DHT22;35752;52.164;21.244;2023-03-01T15:06:00;7.10;99.90
49855;DHT22;35752;52.164;21.244;2023-03-01T15:08:27;7.00;99.90
49855;DHT22;35752;52.164;21.244;2023-03-01T15:11:05;7.00;99.90
49855;DHT22;35752;52.164;21.244;2023-03-01T15:13:34;7.00;99.90
49855;DHT22;35752;52.164;21.244;2023-03-01T15:16:01;6.90;99.90
49855;DHT22;35752;52.164;21.244;2023-03-01T15:18:27;6.90;99.90
49855;DHT22;35752;52.164;21.244;2023-03-01T15:20:54;6.80;99.90
49855;DHT22;35752;52.164;21.244;2023-03-01T15:23:21;6.70;99.90
49855;DHT22;35752;52.164;21.244;2023-03-01T15:25:48;6.70;99.90
49855;DHT22;35752;52.164;21.244;2023-03-01T15:28:22;6.70;99.90
49855;DHT22;35752;52.164;21.244;2023-03-01T15:30:52;6.60;99.90
49855;DHT22;35752;52.164;21.244;2023-03-01T15:33:34;6.60;99.90
49855;DHT22;35752;52.164;21.244;2023-03-01T15:36:04;6.50;99.90
49855;DHT22;35752;52.164;21.244;2023-03-01T15:38:55;6.50;99.90
49855;DHT22;35752;52.164;21.244;2023-03-01T15:41:46;6.50;99.90
49855;DHT22;35752;52.164;21.244;2023-03-01T15:44:26;6.40;99.90
49855;DHT22;35752;52.164;21.244;2023-03-01T15:46:52;6.40;99.90
49855;DHT22;35752;52.164;21.244;2023-03-01T15:51:50;6.40;99.90
49855;DHT22;35752;52.164;21.244;2023-03-01T15:54:21;6.40;99.90
49855;DHT22;35752;52.164;21.244;2023-03-01T15:56:47;6.30;99.90
49855;DHT22;35752;52.164;21.244;2023-03-01T15:59:13;6.20;99.90
49855;DHT22;35752;52.164;21.244;2023-03-01T16:01:39;6.10;99.90
49855;DHT22;35752;52.164;21.244;2023-03-01T16:04:05;6.00;99.90
49855;DHT22;35752;52.164;21.244;2023-03-01T16:06:31;6.00;99.90
49855;DHT22;35752;52.164;21.244;2023-03-01T16:08:56;5.90;99.90
49855;DHT22;35752;52.164;21.244;2023-03-01T16:11:22;5.90;99.90
49855;DHT22;35752;52.164;21.244;2023-03-01T16:13:47;5.80;99.90
49855;DHT22;35752;52.164;21.244;2023-03-01T16:16:14;5.80;99.90
49855;DHT22;35752;52.164;21.244;2023-03-01T16:18:45;5.70;99.90
49855;DHT22;35752;52.164;21.244;2023-03-01T16:21:21;5.80;99.90
49855;DHT22;35752;52.164;21.244;2023-03-01T16:23:47;5.60;99.90
49855;DHT22;35752;52.164;21.244;2023-03-01T16:26:12;5.60;99.90
49855;DHT22;35752;52.164;21.244;2023-03-01T16:28:39;5.60;99.90
49855;DHT22;35752;52.164;21.244;2023-03-01T16:31:04;5.50;99.90
49855;DHT22;35752;52.164;21.244;2023-03-01T16:33:30;5.40;99.90
49855;DHT22;35752;52.164;21.244;2023-03-01T16:35:56;5.40;99.90
49855;DHT22;35752;52.164;21.244;2023-03-01T16:38:22;5.30;99.90
49855;DHT22;35752;52.164;21.244;2023-03-01T16:40:48;5.10;99.90
49855;DHT22;35752;52.164;21.244;2023-03-01T16:43:14;5.00;99.90
49855;DHT22;35752;52.164;21.244;2023-03-01T16:45:39;4.90;99.90
49855;DHT22;35752;52.164;21.244;2023-03-01T16:48:06;4.60;99.90
49855;DHT22;35752;52.164;21.244;2023-03-01T16:50:32;4.60;99.90
49855;DHT22;35752;52.164;21.244;2023-03-01T16:52:58;4.40;99.90
49855;DHT22;35752;52.164;21.244;2023-03-01T16:55:23;4.40;99.90
49855;DHT22;35752;52.164;21.244;2023-03-01T16:57:49;4.20;99.90
49855;DHT22;35752;52.164;21.244;2023-03-01T17:00:15;4.10;99.90
49855;DHT22;35752;52.164;21.244;2023-03-01T17:02:41;4.00;99.90
49855;DHT22;35752;52.164;21.244;2023-03-01T17:05:06;4.00;99.90
49855;DHT22;35752;52.164;21.244;2023-03-01T17:07:32;3.80;99.90
49855;DHT22;35752;52.164;21.244;2023-03-01T17:10:01;3.80;99.90
49855;DHT22;35752;52.164;21.244;2023-03-01T17:12:27;3.60;99.90
49855;DHT22;35752;52.164;21.244;2023-03-01T17:14:53;3.60;99.90
49855;DHT22;35752;52.164;21.244;2023-03-01T17:17:18;3.50;99.90
49855;DHT22;35752;52.164;21.244;2023-03-01T17:19:44;3.40;99.90
49855;DHT22;35752;52.164;21.244;2023-03-01T17:22:10;3.40;99.90
49855;DHT22;35752;52.164;21.244;2023-03-01T17:24:38;3.30;99.90
49855;DHT22;35752;52.164;21.244;2023-03-01T17:27:04;3.10;99.90
49855;DHT22;35752;52.164;21.244;2023-03-01T17:29:30;3.20;99.90
49855;DHT22;35752;52.164;21.244;2023-03-01T17:31:56;3.30;99.90
49855;DHT22;35752;52.164;21.244;2023-03-01T17:34:22;3.20;99.90
49855;DHT22;35752;52.164;21.244;2023-03-01T17:36:48;3.20;99.90
49855;DHT22;35752;52.164;21.244;2023-03-01T17:39:15;3.10;99.90